Terminal Aerodrome Forecast
Issued by NWS Memphis, TN

Home | Current Version | Previous Version | Text Only | Print | Product List | Glossary On
Versions: 1 2 3 4 5 6 7 8 9 10 11 12
000
FTUS44 KMEG 270531
TAFJBR
TAF
KJBR 270531Z 2706/2806 VRB02KT P6SM SCT250
      TEMPO 2709/2713 4SM BR
     FM271600 12005KT P6SM SCT040 BKN200
     FM280100 09007KT P6SM SCT200=

USA.gov is the U.S. government's official web portal to all federal, state and local government web resources and services.